Time;durP1;ratioP1;P1;durP2;ratioP2;P2;SDS_P1;SDS_P2;PMS_P1;PMS_P2;Temp;Humidity;BMP_temperature;BMP_pressure;BME280_temperature;BME280_humidity;BME280_pressure;Samples;Min_cycle;Max_cycle;Signal;HPM_P1;HPM_P2
2023/12/29 00:00:34;;;;;;;7.07;4.13;;;;;;;;;;5053554;28;20485;-66
2023/12/29 00:03:00;;;;;;;5.73;4.10;;;;;;;;;;5058141;28;20521;-66
2023/12/29 00:05:27;;;;;;;5.10;3.60;;;;;;;;;;5061871;28;20514;-66
2023/12/29 00:07:55;;;;;;;7.10;3.90;;;;;;;;;;5074179;28;20469;-67
2023/12/29 00:10:21;;;;;;;3.53;2.70;;;;;;;;;;5075464;28;20456;-67
2023/12/29 00:12:48;;;;;;;4.33;3.87;;;;;;;;;;5067444;28;20476;-67
2023/12/29 00:15:17;;;;;;;9.10;4.60;;;;;;;;;;5074165;28;20491;-68
2023/12/29 00:17:46;;;;;;;5.33;3.87;;;;;;;;;;5070567;28;20520;-68
2023/12/29 00:20:13;;;;;;;4.40;4.00;;;;;;;;;;5070609;28;20519;-68
2023/12/29 00:22:39;;;;;;;6.80;4.10;;;;;;;;;;5072336;28;20555;-67
2023/12/29 00:25:08;;;;;;;8.73;4.17;;;;;;;;;;5076766;28;20455;-68
2023/12/29 00:27:36;;;;;;;6.67;3.97;;;;;;;;;;5072856;28;20510;-67
2023/12/29 00:30:02;;;;;;;5.20;4.20;;;;;;;;;;5068867;28;21251;-68
2023/12/29 00:32:29;;;;;;;5.23;3.97;;;;;;;;;;5073967;28;20440;-67
2023/12/29 00:34:55;;;;;;;5.67;3.70;;;;;;;;;;5075206;28;20572;-67
2023/12/29 00:37:22;;;;;;;9.00;3.70;;;;;;;;;;5071315;28;21050;-67
2023/12/29 00:39:48;;;;;;;11.37;4.27;;;;;;;;;;5075310;28;21022;-67
2023/12/29 00:42:16;;;;;;;3.53;3.20;;;;;;;;;;5067997;28;20491;-67
2023/12/29 00:44:42;;;;;;;3.60;3.30;;;;;;;;;;5070838;28;20519;-66
2023/12/29 00:47:08;;;;;;;2.70;2.43;;;;;;;;;;5073286;28;20512;-66
2023/12/29 00:49:35;;;;;;;2.60;2.40;;;;;;;;;;5071389;28;20554;-66
2023/12/29 00:52:02;;;;;;;6.87;3.80;;;;;;;;;;5074621;28;20476;-66
2023/12/29 00:54:29;;;;;;;7.23;2.77;;;;;;;;;;5071949;28;20485;-66
2023/12/29 00:56:55;;;;;;;3.33;2.60;;;;;;;;;;5074262;28;20552;-68
2023/12/29 00:59:23;;;;;;;3.30;3.00;;;;;;;;;;5070811;28;20504;-67
2023/12/29 01:01:49;;;;;;;7.63;2.57;;;;;;;;;;5074195;28;20503;-67
2023/12/29 01:04:16;;;;;;;4.00;2.70;;;;;;;;;;5075473;28;21231;-68
2023/12/29 01:06:42;;;;;;;4.53;3.10;;;;;;;;;;5074062;28;20559;-67
2023/12/29 01:09:10;;;;;;;4.73;3.43;;;;;;;;;;5072000;28;20532;-67
2023/12/29 01:11:36;;;;;;;4.20;3.83;;;;;;;;;;5073453;28;20538;-66
2023/12/29 01:14:03;;;;;;;4.20;3.10;;;;;;;;;;5075382;28;20483;-66
2023/12/29 01:16:30;;;;;;;5.93;3.23;;;;;;;;;;5071505;28;20504;-67
2023/12/29 01:18:57;;;;;;;4.70;3.53;;;;;;;;;;5066943;28;20450;-66
2023/12/29 01:21:23;;;;;;;5.43;3.00;;;;;;;;;;5071779;28;20518;-66
2023/12/29 01:23:49;;;;;;;5.33;3.07;;;;;;;;;;5076479;28;20482;-67
2023/12/29 01:26:16;;;;;;;2.83;2.63;;;;;;;;;;5073891;28;20464;-67
2023/12/29 01:28:42;;;;;;;3.70;3.40;;;;;;;;;;5071331;28;21061;-67
2023/12/29 01:31:11;;;;;;;8.83;3.57;;;;;;;;;;5073931;28;20528;-66
2023/12/29 01:33:38;;;;;;;7.10;3.77;;;;;;;;;;5072370;28;20513;-67
2023/12/29 01:36:05;;;;;;;4.27;3.27;;;;;;;;;;5073397;28;20539;-66
2023/12/29 01:38:31;;;;;;;6.33;3.60;;;;;;;;;;5073622;28;20457;-67
2023/12/29 01:40:58;;;;;;;4.13;3.20;;;;;;;;;;5070591;28;21081;-66
2023/12/29 01:43:24;;;;;;;5.17;3.90;;;;;;;;;;5076008;28;20527;-68
2023/12/29 01:45:51;;;;;;;4.93;3.40;;;;;;;;;;5070362;28;20554;-66
2023/12/29 01:48:17;;;;;;;5.73;4.10;;;;;;;;;;5073989;28;20479;-66
2023/12/29 01:50:45;;;;;;;4.07;3.30;;;;;;;;;;5069520;28;21055;-66
2023/12/29 01:53:12;;;;;;;5.63;2.90;;;;;;;;;;5076262;28;20468;-65
2023/12/29 01:55:39;;;;;;;6.53;3.30;;;;;;;;;;5073664;28;20452;-67
2023/12/29 01:58:05;;;;;;;10.73;2.80;;;;;;;;;;5072549;28;20537;-65
2023/12/29 02:00:31;;;;;;;2.63;2.43;;;;;;;;;;5073817;28;20556;-66
2023/12/29 02:02:58;;;;;;;11.30;3.00;;;;;;;;;;5071092;28;20467;-66
2023/12/29 02:05:25;;;;;;;3.43;2.23;;;;;;;;;;5069814;28;21028;-67
2023/12/29 02:07:54;;;;;;;7.80;2.40;;;;;;;;;;5055083;28;20879;-67
2023/12/29 02:10:20;;;;;;;2.70;2.20;;;;;;;;;;5050815;28;20942;-67
2023/12/29 02:12:47;;;;;;;3.37;3.10;;;;;;;;;;5045953;28;20457;-68
2023/12/29 02:15:14;;;;;;;5.17;3.40;;;;;;;;;;5054369;28;20515;-67
2023/12/29 02:17:42;;;;;;;7.13;3.57;;;;;;;;;;5051466;28;20564;-68
2023/12/29 02:20:10;;;;;;;5.03;3.80;;;;;;;;;;5054738;28;20499;-67
2023/12/29 02:22:36;;;;;;;4.13;3.83;;;;;;;;;;5050200;28;20909;-67
2023/12/29 02:25:04;;;;;;;4.93;3.37;;;;;;;;;;5050200;28;20532;-66
2023/12/29 02:27:34;;;;;;;5.90;3.23;;;;;;;;;;5051694;28;20442;-68
2023/12/29 02:30:07;;;;;;;3.10;2.87;;;;;;;;;;5049809;28;20479;-68
2023/12/29 02:32:34;;;;;;;4.37;3.40;;;;;;;;;;5054822;28;20495;-66
2023/12/29 02:35:02;;;;;;;3.30;3.10;;;;;;;;;;5048288;28;20934;-67
2023/12/29 02:37:29;;;;;;;3.77;3.00;;;;;;;;;;5047123;28;20453;-68
2023/12/29 02:39:57;;;;;;;4.67;3.50;;;;;;;;;;5048774;28;20567;-67
2023/12/29 02:42:24;;;;;;;3.83;3.53;;;;;;;;;;5054133;28;20491;-67
2023/12/29 02:44:51;;;;;;;4.23;2.93;;;;;;;;;;5054250;28;20497;-66
2023/12/29 02:47:19;;;;;;;3.83;3.40;;;;;;;;;;5055827;28;20500;-67
2023/12/29 02:49:45;;;;;;;2.90;2.70;;;;;;;;;;5052456;28;20449;-66
2023/12/29 02:52:11;;;;;;;3.53;3.13;;;;;;;;;;5056569;28;20524;-68
2023/12/29 02:54:38;;;;;;;2.93;2.27;;;;;;;;;;5056360;28;20491;-67
2023/12/29 02:57:04;;;;;;;2.23;2.03;;;;;;;;;;5057329;28;20547;-67
2023/12/29 02:59:32;;;;;;;4.20;1.73;;;;;;;;;;5048258;28;20524;-66
2023/12/29 03:01:58;;;;;;;3.47;2.03;;;;;;;;;;5055649;28;20532;-67
2023/12/29 03:04:25;;;;;;;5.27;1.63;;;;;;;;;;5055934;28;20572;-66
2023/12/29 03:06:51;;;;;;;3.97;1.50;;;;;;;;;;5054255;28;20503;-67
2023/12/29 03:09:17;;;;;;;8.60;2.17;;;;;;;;;;5058338;28;20534;-68
2023/12/29 03:11:44;;;;;;;5.93;1.80;;;;;;;;;;5052514;28;20995;-68
2023/12/29 03:14:10;;;;;;;3.63;1.77;;;;;;;;;;5053405;28;20473;-69
2023/12/29 03:16:38;;;;;;;4.00;1.10;;;;;;;;;;5057037;28;20480;-68
2023/12/29 03:19:04;;;;;;;7.97;1.53;;;;;;;;;;5056818;28;21027;-68
2023/12/29 03:21:31;;;;;;;3.00;1.10;;;;;;;;;;5047891;28;20522;-68
2023/12/29 03:23:57;;;;;;;3.10;1.40;;;;;;;;;;5052014;28;21337;-68
2023/12/29 03:26:24;;;;;;;3.90;1.70;;;;;;;;;;5057709;28;20491;-68
2023/12/29 03:28:50;;;;;;;3.70;1.50;;;;;;;;;;5058927;28;20576;-69
2023/12/29 03:31:17;;;;;;;6.50;2.43;;;;;;;;;;5057572;28;21028;-68
2023/12/29 03:33:44;;;;;;;4.80;1.30;;;;;;;;;;5052680;28;20532;-66
2023/12/29 03:36:11;;;;;;;4.43;1.73;;;;;;;;;;5051367;28;20453;-68
2023/12/29 03:38:37;;;;;;;2.10;1.47;;;;;;;;;;5051741;28;20464;-67
2023/12/29 03:41:04;;;;;;;4.90;1.50;;;;;;;;;;5057208;28;20575;-67
2023/12/29 03:43:30;;;;;;;4.47;1.37;;;;;;;;;;5057630;28;20517;-68
2023/12/29 03:45:56;;;;;;;3.23;1.97;;;;;;;;;;5056595;28;20499;-68
2023/12/29 03:48:23;;;;;;;2.03;1.30;;;;;;;;;;5051666;28;20553;-68
2023/12/29 03:50:51;;;;;;;2.90;1.57;;;;;;;;;;5051622;28;20527;-68
2023/12/29 03:53:19;;;;;;;5.07;2.03;;;;;;;;;;5051528;28;20456;-68
2023/12/29 03:55:45;;;;;;;3.90;1.50;;;;;;;;;;5054898;28;20525;-68
2023/12/29 03:58:11;;;;;;;5.07;1.97;;;;;;;;;;5053089;28;20481;-68
2023/12/29 04:00:41;;;;;;;3.23;1.70;;;;;;;;;;5057319;28;20516;-66
2023/12/29 04:03:08;;;;;;;3.47;1.47;;;;;;;;;;5048899;28;20953;-66
2023/12/29 04:05:34;;;;;;;2.63;2.00;;;;;;;;;;5056405;28;20488;-66
2023/12/29 04:08:02;;;;;;;4.60;2.13;;;;;;;;;;5055979;28;20477;-66
2023/12/29 04:10:28;;;;;;;3.97;1.77;;;;;;;;;;5051260;28;20449;-66
2023/12/29 04:12:55;;;;;;;4.23;1.70;;;;;;;;;;5051495;28;21088;-66
2023/12/29 04:15:21;;;;;;;6.93;2.20;;;;;;;;;;5056486;28;20485;-66
2023/12/29 04:17:47;;;;;;;3.20;1.97;;;;;;;;;;5057627;28;20449;-67
2023/12/29 04:20:14;;;;;;;2.40;1.73;;;;;;;;;;5057139;28;20533;-68
2023/12/29 04:22:40;;;;;;;5.43;2.00;;;;;;;;;;5052666;28;20565;-67
2023/12/29 04:25:08;;;;;;;3.33;1.63;;;;;;;;;;5056633;28;20549;-66
2023/12/29 04:27:35;;;;;;;4.20;1.70;;;;;;;;;;5052702;28;20452;-67
2023/12/29 04:30:01;;;;;;;2.13;1.70;;;;;;;;;;5048705;28;20515;-67
2023/12/29 04:32:28;;;;;;;5.40;1.83;;;;;;;;;;5054376;28;20552;-67
2023/12/29 04:34:54;;;;;;;4.43;1.97;;;;;;;;;;5056490;28;20529;-66
2023/12/29 04:37:20;;;;;;;5.10;2.27;;;;;;;;;;5055305;28;20473;-66
2023/12/29 04:39:47;;;;;;;5.97;1.80;;;;;;;;;;5045955;28;20449;-66
2023/12/29 04:42:15;;;;;;;3.70;2.10;;;;;;;;;;5048054;28;20517;-66
2023/12/29 04:44:41;;;;;;;4.50;1.73;;;;;;;;;;5054707;28;20449;-68
2023/12/29 04:47:08;;;;;;;2.73;1.73;;;;;;;;;;5056572;28;20511;-67
2023/12/29 04:49:34;;;;;;;4.43;2.13;;;;;;;;;;5056515;28;21045;-67
2023/12/29 04:52:01;;;;;;;7.80;2.60;;;;;;;;;;5055964;28;20453;-67
2023/12/29 04:54:27;;;;;;;11.00;4.17;;;;;;;;;;5051288;28;20525;-66
2023/12/29 04:56:54;;;;;;;2.47;2.07;;;;;;;;;;5049220;28;20536;-65
2023/12/29 04:59:21;;;;;;;6.20;2.07;;;;;;;;;;5050108;28;20837;-67
2023/12/29 05:01:48;;;;;;;8.33;2.30;;;;;;;;;;5049577;28;20497;-67
2023/12/29 05:04:16;;;;;;;4.33;2.33;;;;;;;;;;5056482;28;20468;-67
2023/12/29 05:06:43;;;;;;;7.63;3.93;;;;;;;;;;5053044;28;20484;-68
2023/12/29 05:09:09;;;;;;;9.30;2.50;;;;;;;;;;5050303;28;20502;-67
2023/12/29 05:11:36;;;;;;;4.93;1.90;;;;;;;;;;5052765;28;20494;-67
2023/12/29 05:14:02;;;;;;;7.60;2.63;;;;;;;;;;5053059;28;20460;-67
2023/12/29 05:16:30;;;;;;;9.83;2.73;;;;;;;;;;5055011;28;20459;-68
2023/12/29 05:18:56;;;;;;;5.77;2.63;;;;;;;;;;5055878;28;20479;-66
2023/12/29 05:21:24;;;;;;;8.10;2.30;;;;;;;;;;5049811;28;20579;-66
2023/12/29 05:23:50;;;;;;;9.90;3.57;;;;;;;;;;5050929;28;21012;-67
2023/12/29 05:26:17;;;;;;;5.60;2.73;;;;;;;;;;5055914;28;20453;-67
2023/12/29 05:28:43;;;;;;;4.20;1.93;;;;;;;;;;5054600;28;20544;-66
2023/12/29 05:31:10;;;;;;;5.40;2.00;;;;;;;;;;5054800;28;20552;-68
2023/12/29 05:33:37;;;;;;;6.60;1.80;;;;;;;;;;5056086;28;21214;-67
2023/12/29 05:36:07;;;;;;;7.10;2.77;;;;;;;;;;5056294;28;20476;-67
2023/12/29 05:38:33;;;;;;;4.00;2.10;;;;;;;;;;5045238;28;20453;-67
2023/12/29 05:41:01;;;;;;;4.80;2.10;;;;;;;;;;5054151;28;20524;-67
2023/12/29 05:43:27;;;;;;;6.80;2.10;;;;;;;;;;5051593;28;20455;-66
2023/12/29 05:45:54;;;;;;;12.40;2.67;;;;;;;;;;5052651;28;20483;-66
2023/12/29 05:48:20;;;;;;;4.80;2.60;;;;;;;;;;5053427;28;20440;-66
2023/12/29 05:50:48;;;;;;;5.67;2.07;;;;;;;;;;5053063;28;20448;-67
2023/12/29 05:53:15;;;;;;;6.33;2.50;;;;;;;;;;5050176;28;20449;-66
2023/12/29 05:55:41;;;;;;;4.03;2.50;;;;;;;;;;5054869;28;20487;-67
2023/12/29 05:58:08;;;;;;;5.63;2.60;;;;;;;;;;5054393;28;20446;-67
2023/12/29 06:00:34;;;;;;;9.30;2.70;;;;;;;;;;5053397;28;20480;-66
2023/12/29 06:03:00;;;;;;;7.63;2.10;;;;;;;;;;5056319;28;20516;-66
2023/12/29 06:05:27;;;;;;;6.97;2.30;;;;;;;;;;5045589;28;20492;-66
2023/12/29 06:07:55;;;;;;;5.63;2.43;;;;;;;;;;5049475;28;20477;-66
2023/12/29 06:10:21;;;;;;;8.80;2.70;;;;;;;;;;5052782;28;20473;-66
2023/12/29 06:12:48;;;;;;;8.00;4.03;;;;;;;;;;5056118;28;20496;-65
2023/12/29 06:15:14;;;;;;;7.10;2.70;;;;;;;;;;5051534;28;20461;-67
2023/12/29 06:17:41;;;;;;;4.10;2.23;;;;;;;;;;5050682;28;20607;-66
2023/12/29 06:20:09;;;;;;;5.67;2.80;;;;;;;;;;5052131;28;20491;-65
2023/12/29 06:22:39;;;;;;;5.50;2.60;;;;;;;;;;5055615;28;20484;-65
2023/12/29 06:25:09;;;;;;;4.70;2.50;;;;;;;;;;5043705;28;20962;-66
2023/12/29 06:27:37;;;;;;;7.73;3.00;;;;;;;;;;5060272;28;20460;-67
2023/12/29 06:30:03;;;;;;;5.60;2.80;;;;;;;;;;5059753;28;20455;-67
2023/12/29 06:32:30;;;;;;;5.13;2.63;;;;;;;;;;5052944;28;20457;-66
2023/12/29 06:34:56;;;;;;;7.17;3.33;;;;;;;;;;5058737;28;20441;-67
2023/12/29 06:37:23;;;;;;;6.20;3.70;;;;;;;;;;5059731;28;21010;-67
2023/12/29 06:39:49;;;;;;;4.17;2.77;;;;;;;;;;5059242;28;21113;-67
2023/12/29 06:42:17;;;;;;;4.80;3.03;;;;;;;;;;5054293;28;20514;-67
2023/12/29 06:44:43;;;;;;;9.43;3.30;;;;;;;;;;5060040;28;20448;-80
2023/12/29 06:47:10;;;;;;;8.43;3.30;;;;;;;;;;5057898;28;20457;-79
2023/12/29 06:49:36;;;;;;;4.37;3.93;;;;;;;;;;5059268;28;20542;-75
2023/12/29 06:52:03;;;;;;;5.27;3.10;;;;;;;;;;5049290;28;20483;-75
2023/12/29 06:54:29;;;;;;;6.23;2.90;;;;;;;;;;5054717;28;20448;-78
2023/12/29 06:56:56;;;;;;;8.90;3.60;;;;;;;;;;5058609;28;20492;-78
2023/12/29 06:59:23;;;;;;;7.00;3.23;;;;;;;;;;5057507;28;20993;-76
2023/12/29 07:01:50;;;;;;;4.30;3.40;;;;;;;;;;5057640;28;20501;-79
2023/12/29 07:04:16;;;;;;;7.63;4.00;;;;;;;;;;5058320;28;20481;-80
2023/12/29 07:06:43;;;;;;;9.70;2.70;;;;;;;;;;5058928;28;20514;-78
2023/12/29 07:09:09;;;;;;;7.10;3.47;;;;;;;;;;5054854;28;20426;-81
2023/12/29 07:11:36;;;;;;;6.53;2.50;;;;;;;;;;5057596;28;20457;-80
2023/12/29 07:14:03;;;;;;;5.37;2.63;;;;;;;;;;5058865;28;20513;-79
2023/12/29 07:16:31;;;;;;;6.47;3.00;;;;;;;;;;5055904;28;20464;-80
2023/12/29 07:18:58;;;;;;;6.60;2.87;;;;;;;;;;5059038;28;20449;-80
2023/12/29 07:21:24;;;;;;;4.97;3.53;;;;;;;;;;5058375;28;20519;-81
2023/12/29 07:23:51;;;;;;;6.03;3.00;;;;;;;;;;5054746;28;20449;-81
2023/12/29 07:26:17;;;;;;;3.10;2.73;;;;;;;;;;5055140;28;20462;-82
2023/12/29 07:28:43;;;;;;;7.83;2.97;;;;;;;;;;5054143;28;20445;-82
2023/12/29 07:31:10;;;;;;;4.37;3.90;;;;;;;;;;5055899;28;20491;-82
2023/12/29 07:33:38;;;;;;;9.07;3.63;;;;;;;;;;5049778;28;20484;-81
2023/12/29 07:36:04;;;;;;;7.20;3.00;;;;;;;;;;5057457;28;20452;-82
2023/12/29 07:38:31;;;;;;;4.77;3.40;;;;;;;;;;5057189;28;20514;-79
2023/12/29 07:40:57;;;;;;;3.83;3.00;;;;;;;;;;5056006;28;20464;-81
2023/12/29 07:43:24;;;;;;;7.87;3.20;;;;;;;;;;5049602;28;20535;-82
2023/12/29 07:45:50;;;;;;;5.43;2.80;;;;;;;;;;5054136;28;20491;-79
2023/12/29 07:48:17;;;;;;;15.87;4.23;;;;;;;;;;5056392;28;20452;-79
2023/12/29 07:50:45;;;;;;;11.00;3.00;;;;;;;;;;5052871;28;20542;-80
2023/12/29 07:53:11;;;;;;;7.03;3.10;;;;;;;;;;5054765;28;20453;-79
2023/12/29 07:55:38;;;;;;;5.57;3.00;;;;;;;;;;5045057;28;20453;-79
2023/12/29 07:58:04;;;;;;;4.83;3.07;;;;;;;;;;5053650;28;20476;-81
2023/12/29 08:00:31;;;;;;;4.00;3.60;;;;;;;;;;5058341;28;20504;-82
2023/12/29 08:02:59;;;;;;;11.53;5.07;;;;;;;;;;5057132;28;20579;-81
2023/12/29 08:05:25;;;;;;;5.83;3.50;;;;;;;;;;5057711;28;20522;-80
2023/12/29 08:07:54;;;;;;;6.93;3.93;;;;;;;;;;5075380;28;20496;-73
2023/12/29 08:10:21;;;;;;;5.73;3.90;;;;;;;;;;5074787;28;21059;-73
2023/12/29 08:12:47;;;;;;;4.47;3.50;;;;;;;;;;5074648;28;20590;-67
2023/12/29 08:15:14;;;;;;;10.60;4.10;;;;;;;;;;5069171;28;20968;-71
2023/12/29 08:17:40;;;;;;;4.60;4.20;;;;;;;;;;5077184;28;20516;-70
2023/12/29 08:20:07;;;;;;;4.97;4.00;;;;;;;;;;5077590;28;20586;-72
2023/12/29 08:22:33;;;;;;;4.30;3.90;;;;;;;;;;5074316;28;20479;-73
2023/12/29 08:25:01;;;;;;;7.47;3.70;;;;;;;;;;5072849;28;20440;-73
2023/12/29 08:27:28;;;;;;;5.60;3.90;;;;;;;;;;5074435;28;20472;-73
2023/12/29 08:29:54;;;;;;;9.33;4.77;;;;;;;;;;5076106;28;20459;-74
2023/12/29 08:32:22;;;;;;;5.53;4.17;;;;;;;;;;5070204;28;20455;-74
2023/12/29 08:34:48;;;;;;;8.90;4.20;;;;;;;;;;5073921;28;20452;-74
2023/12/29 08:37:19;;;;;;;4.80;3.40;;;;;;;;;;5071062;28;20458;-74
2023/12/29 08:39:46;;;;;;;3.87;3.43;;;;;;;;;;5075002;28;20505;-69
2023/12/29 08:42:13;;;;;;;9.40;3.77;;;;;;;;;;5069643;28;20488;-77
2023/12/29 08:44:40;;;;;;;4.57;3.60;;;;;;;;;;5073737;28;20531;-77
2023/12/29 08:47:08;;;;;;;7.03;2.73;;;;;;;;;;5075718;28;20484;-77
2023/12/29 08:49:34;;;;;;;9.13;2.77;;;;;;;;;;5063455;28;20440;-76
2023/12/29 08:52:00;;;;;;;6.33;2.30;;;;;;;;;;5073933;28;20441;-76
2023/12/29 08:54:27;;;;;;;5.53;2.10;;;;;;;;;;5070196;28;20513;-76
2023/12/29 08:56:53;;;;;;;2.80;1.57;;;;;;;;;;5069576;28;21044;-77
2023/12/29 08:59:21;;;;;;;3.83;1.50;;;;;;;;;;5074824;28;20455;-78
2023/12/29 09:01:47;;;;;;;6.63;2.37;;;;;;;;;;5074071;28;20952;-75
2023/12/29 09:04:14;;;;;;;5.73;2.67;;;;;;;;;;5077180;28;20460;-76
2023/12/29 09:06:40;;;;;;;5.60;1.90;;;;;;;;;;5077303;28;20503;-78
2023/12/29 09:09:06;;;;;;;5.63;1.83;;;;;;;;;;5071757;28;20456;-75
2023/12/29 09:11:33;;;;;;;4.70;2.10;;;;;;;;;;5070593;28;20480;-78
2023/12/29 09:13:59;;;;;;;8.20;2.00;;;;;;;;;;5070313;28;20559;-78
2023/12/29 09:16:27;;;;;;;7.83;1.97;;;;;;;;;;5075219;28;20888;-76
2023/12/29 09:18:53;;;;;;;6.17;1.90;;;;;;;;;;5076825;28;20522;-77
2023/12/29 09:21:20;;;;;;;6.10;2.10;;;;;;;;;;5076662;28;20991;-77
2023/12/29 09:23:47;;;;;;;5.40;1.97;;;;;;;;;;5076929;28;20543;-76
2023/12/29 09:26:13;;;;;;;3.17;1.40;;;;;;;;;;5074686;28;20495;-75
2023/12/29 09:28:42;;;;;;;4.23;1.47;;;;;;;;;;5077331;28;20571;-75
2023/12/29 09:31:08;;;;;;;2.00;1.60;;;;;;;;;;5070615;28;20447;-76
2023/12/29 09:33:37;;;;;;;3.90;1.70;;;;;;;;;;5077091;28;20447;-77
2023/12/29 09:36:03;;;;;;;6.70;2.07;;;;;;;;;;5076689;28;20448;-77
2023/12/29 09:38:30;;;;;;;7.20;1.60;;;;;;;;;;5076808;28;20468;-78
2023/12/29 09:41:00;;;;;;;3.27;1.93;;;;;;;;;;5072234;28;20491;-75
2023/12/29 09:43:26;;;;;;;6.07;2.10;;;;;;;;;;5070679;28;20511;-79
2023/12/29 09:45:53;;;;;;;3.50;2.27;;;;;;;;;;5076268;28;20479;-76
2023/12/29 09:48:20;;;;;;;4.83;2.07;;;;;;;;;;5070884;28;20536;-79
2023/12/29 09:50:50;;;;;;;3.80;1.87;;;;;;;;;;5076409;28;20440;-78
2023/12/29 09:53:18;;;;;;;2.73;2.10;;;;;;;;;;5074058;28;20486;-78
2023/12/29 09:55:45;;;;;;;2.40;1.80;;;;;;;;;;5076102;28;20894;-80
2023/12/29 09:58:13;;;;;;;3.40;1.80;;;;;;;;;;5076667;28;20454;-80
2023/12/29 10:00:40;;;;;;;2.20;1.60;;;;;;;;;;5075824;28;20479;-76
2023/12/29 10:03:06;;;;;;;5.57;1.70;;;;;;;;;;5073980;28;20498;-73
2023/12/29 10:05:33;;;;;;;1.90;1.60;;;;;;;;;;5070166;28;20607;-79
2023/12/29 10:08:03;;;;;;;4.87;1.97;;;;;;;;;;5055974;28;20480;-80
2023/12/29 10:10:31;;;;;;;2.03;1.70;;;;;;;;;;5047918;28;20457;-79
2023/12/29 10:12:58;;;;;;;2.30;1.63;;;;;;;;;;5051864;28;20535;-79
2023/12/29 10:15:28;;;;;;;5.30;2.03;;;;;;;;;;5050143;28;21062;-78
2023/12/29 10:18:02;;;;;;;3.83;1.73;;;;;;;;;;5056243;28;20453;-80
2023/12/29 10:20:33;;;;;;;2.80;1.67;;;;;;;;;;5056264;28;21086;-80
2023/12/29 10:23:05;;;;;;;2.60;1.57;;;;;;;;;;5055742;28;20488;-77
2023/12/29 10:25:32;;;;;;;4.80;1.47;;;;;;;;;;5055976;28;20500;-77
2023/12/29 10:27:59;;;;;;;3.23;1.20;;;;;;;;;;5055737;28;20495;-77
2023/12/29 10:30:25;;;;;;;1.93;1.40;;;;;;;;;;5055833;28;20536;-77
2023/12/29 10:32:53;;;;;;;4.70;1.30;;;;;;;;;;5051734;28;21024;-79
2023/12/29 10:35:19;;;;;;;6.97;1.33;;;;;;;;;;5056066;28;20619;-77
2023/12/29 10:37:45;;;;;;;1.90;1.33;;;;;;;;;;5050570;28;20453;-77
2023/12/29 10:40:17;;;;;;;3.30;1.30;;;;;;;;;;5055443;28;20544;-77
2023/12/29 10:42:52;;;;;;;1.93;1.10;;;;;;;;;;5055529;28;20505;-78
2023/12/29 10:45:18;;;;;;;3.97;1.53;;;;;;;;;;5055562;28;20551;-77
2023/12/29 10:47:45;;;;;;;6.07;1.33;;;;;;;;;;5050353;28;20980;-77
2023/12/29 10:50:11;;;;;;;3.83;1.40;;;;;;;;;;5050309;28;20453;-76
2023/12/29 10:52:38;;;;;;;2.03;1.40;;;;;;;;;;5053628;28;20472;-78
2023/12/29 10:55:05;;;;;;;5.17;1.60;;;;;;;;;;5055956;28;20453;-77
2023/12/29 10:57:33;;;;;;;2.07;1.33;;;;;;;;;;5055188;28;20455;-79
2023/12/29 11:00:00;;;;;;;2.40;1.20;;;;;;;;;;5052667;28;20452;-77
2023/12/29 11:02:26;;;;;;;1.90;1.07;;;;;;;;;;5054804;28;20572;-78
2023/12/29 11:04:52;;;;;;;1.50;1.40;;;;;;;;;;5055927;28;20514;-78
2023/12/29 11:07:31;;;;;;;5.20;1.40;;;;;;;;;;5074826;28;21250;-77
2023/12/29 11:10:00;;;;;;;1.70;1.60;;;;;;;;;;5073647;28;20519;-80
2023/12/29 11:12:27;;;;;;;2.13;1.30;;;;;;;;;;5078043;28;20534;-78
2023/12/29 11:14:55;;;;;;;1.80;1.70;;;;;;;;;;5074165;28;20512;-79
2023/12/29 11:17:21;;;;;;;3.57;1.93;;;;;;;;;;5078847;28;20452;-81
2023/12/29 11:19:48;;;;;;;4.33;1.60;;;;;;;;;;5075747;28;20908;-77
2023/12/29 11:22:15;;;;;;;1.60;1.27;;;;;;;;;;5078619;28;20456;-78
2023/12/29 11:24:41;;;;;;;1.87;1.30;;;;;;;;;;5077552;28;20463;-80
2023/12/29 11:27:08;;;;;;;1.40;1.30;;;;;;;;;;5079401;28;20497;-79
2023/12/29 11:29:35;;;;;;;2.10;1.30;;;;;;;;;;5079028;28;20435;-81
2023/12/29 11:32:05;;;;;;;1.50;1.40;;;;;;;;;;5079256;28;20960;-78
2023/12/29 11:34:36;;;;;;;2.10;1.17;;;;;;;;;;5072302;28;20521;-77
2023/12/29 11:37:06;;;;;;;2.10;1.50;;;;;;;;;;5078408;28;20468;-77
2023/12/29 11:39:38;;;;;;;1.67;1.20;;;;;;;;;;5078903;28;20444;-80
2023/12/29 11:42:07;;;;;;;4.40;1.70;;;;;;;;;;5066627;28;20461;-75
2023/12/29 11:44:33;;;;;;;4.50;1.30;;;;;;;;;;5075894;28;20486;-76
2023/12/29 11:47:00;;;;;;;6.97;1.20;;;;;;;;;;5061045;28;20830;-79
2023/12/29 11:49:27;;;;;;;1.67;1.37;;;;;;;;;;5078604;28;20485;-77
2023/12/29 11:51:54;;;;;;;1.77;1.67;;;;;;;;;;5077905;28;20479;-78
2023/12/29 11:54:24;;;;;;;1.37;1.27;;;;;;;;;;5079159;28;20524;-77
2023/12/29 11:56:49;;;;;;;3.20;1.43;;;;;;;;;;5077341;28;20984;-76
2023/12/29 11:59:16;;;;;;;1.40;1.30;;;;;;;;;;5072878;28;20475;-81
2023/12/29 12:01:43;;;;;;;1.70;1.37;;;;;;;;;;5074232;28;20286;-79
2023/12/29 12:04:28;;;;;;;2.03;1.70;;;;;;;;;;5073252;28;21005;-78
2023/12/29 12:06:56;;;;;;;2.47;1.10;;;;;;;;;;5056851;28;20579;-79
2023/12/29 12:09:23;;;;;;;1.20;1.17;;;;;;;;;;5057888;28;20519;-77
2023/12/29 12:11:50;;;;;;;1.50;1.40;;;;;;;;;;5058062;28;20477;-80
2023/12/29 12:14:31;;;;;;;1.87;1.77;;;;;;;;;;5057632;28;20469;-79
2023/12/29 12:16:58;;;;;;;1.40;1.30;;;;;;;;;;5056095;28;20447;-79
2023/12/29 12:19:27;;;;;;;1.93;1.77;;;;;;;;;;5058311;28;21067;-81
2023/12/29 12:21:54;;;;;;;2.03;1.83;;;;;;;;;;5057654;28;20710;-80
2023/12/29 12:24:22;;;;;;;2.40;1.87;;;;;;;;;;5053397;28;20508;-78
2023/12/29 12:26:49;;;;;;;1.60;1.50;;;;;;;;;;5054866;28;20441;-80
2023/12/29 12:29:15;;;;;;;1.77;1.67;;;;;;;;;;5048026;28;20449;-76
2023/12/29 12:31:54;;;;;;;2.93;1.67;;;;;;;;;;5049611;28;20514;-78
2023/12/29 12:34:21;;;;;;;1.90;1.57;;;;;;;;;;5053400;28;20480;-77
2023/12/29 12:36:51;;;;;;;1.70;1.60;;;;;;;;;;5055997;28;20480;-80
2023/12/29 12:39:17;;;;;;;1.57;1.47;;;;;;;;;;5053504;28;20441;-78
2023/12/29 12:41:45;;;;;;;2.63;1.80;;;;;;;;;;5055860;28;20535;-80
2023/12/29 12:44:13;;;;;;;1.83;1.73;;;;;;;;;;5055672;28;20512;-77
2023/12/29 12:46:41;;;;;;;5.23;2.00;;;;;;;;;;5051466;28;20448;-81
2023/12/29 12:49:07;;;;;;;1.93;1.73;;;;;;;;;;5057660;28;20472;-80
2023/12/29 12:51:34;;;;;;;1.77;1.67;;;;;;;;;;5054919;28;20571;-78
2023/12/29 12:54:01;;;;;;;3.20;1.63;;;;;;;;;;5054222;28;20476;-78
2023/12/29 12:56:28;;;;;;;1.80;1.70;;;;;;;;;;5051482;28;20449;-77
2023/12/29 12:58:57;;;;;;;3.67;1.70;;;;;;;;;;5057251;28;20463;-80
2023/12/29 13:01:24;;;;;;;1.87;1.77;;;;;;;;;;5054576;28;20525;-78
2023/12/29 13:03:50;;;;;;;2.33;1.80;;;;;;;;;;5056877;28;20552;-77
2023/12/29 13:06:17;;;;;;;1.90;1.80;;;;;;;;;;5068413;28;20503;-80
2023/12/29 13:08:44;;;;;;;2.03;1.73;;;;;;;;;;5076335;28;20448;-78
2023/12/29 13:11:12;;;;;;;2.17;1.77;;;;;;;;;;5076633;28;20519;-78
2023/12/29 13:13:39;;;;;;;5.03;2.00;;;;;;;;;;5071426;28;20483;-78
2023/12/29 13:16:09;;;;;;;2.57;2.37;;;;;;;;;;5073636;28;20444;-79
2023/12/29 13:18:35;;;;;;;3.20;2.77;;;;;;;;;;5067029;28;20457;-80
2023/12/29 13:21:02;;;;;;;3.20;3.00;;;;;;;;;;5077116;28;20516;-77
2023/12/29 13:23:29;;;;;;;3.43;3.13;;;;;;;;;;5076706;28;20498;-81
2023/12/29 13:25:57;;;;;;;3.57;2.70;;;;;;;;;;5076643;28;21066;-81
2023/12/29 13:28:24;;;;;;;3.23;2.40;;;;;;;;;;5075984;28;20488;-78
2023/12/29 13:30:51;;;;;;;3.23;2.60;;;;;;;;;;5076606;28;20451;-78
2023/12/29 13:33:25;;;;;;;2.67;2.47;;;;;;;;;;5076705;28;20548;-77
2023/12/29 13:35:55;;;;;;;2.97;2.77;;;;;;;;;;5077397;28;20571;-81
2023/12/29 13:38:25;;;;;;;3.90;3.07;;;;;;;;;;5076658;28;20573;-80
2023/12/29 13:40:55;;;;;;;3.00;2.30;;;;;;;;;;5076396;28;20468;-80
2023/12/29 13:43:22;;;;;;;3.10;2.20;;;;;;;;;;5071522;28;20532;-78
2023/12/29 13:45:49;;;;;;;6.00;2.37;;;;;;;;;;5076446;28;20452;-77
2023/12/29 13:48:16;;;;;;;3.97;2.33;;;;;;;;;;5076803;28;20487;-81
2023/12/29 13:50:47;;;;;;;2.20;2.00;;;;;;;;;;5077376;28;20859;-78
2023/12/29 13:53:16;;;;;;;2.90;2.13;;;;;;;;;;5076665;28;20538;-77
2023/12/29 13:55:43;;;;;;;3.30;3.10;;;;;;;;;;5076069;28;20512;-79
2023/12/29 13:58:10;;;;;;;2.70;2.50;;;;;;;;;;5077593;28;20479;-78
2023/12/29 14:00:38;;;;;;;3.30;2.90;;;;;;;;;;5072359;28;21124;-78
2023/12/29 14:03:07;;;;;;;3.50;3.20;;;;;;;;;;5072035;28;20488;-80
2023/12/29 14:05:36;;;;;;;3.03;2.70;;;;;;;;;;5063769;28;20551;-78
2023/12/29 14:08:09;;;;;;;4.50;3.20;;;;;;;;;;5052602;28;20981;-80
2023/12/29 14:10:36;;;;;;;3.40;3.20;;;;;;;;;;5053958;28;20513;-77
2023/12/29 14:13:09;;;;;;;6.47;3.50;;;;;;;;;;5056219;28;20484;-77
2023/12/29 14:15:36;;;;;;;3.60;3.30;;;;;;;;;;5055704;28;20448;-74
2023/12/29 14:18:05;;;;;;;3.90;2.93;;;;;;;;;;5052700;28;20536;-79
2023/12/29 14:20:34;;;;;;;4.47;3.00;;;;;;;;;;5050745;28;20471;-78
2023/12/29 14:23:02;;;;;;;3.87;3.40;;;;;;;;;;5051460;28;21064;-81
2023/12/29 14:25:30;;;;;;;4.40;2.90;;;;;;;;;;5052812;28;20507;-76
2023/12/29 14:27:57;;;;;;;3.47;2.60;;;;;;;;;;5050780;28;20440;-80
2023/12/29 14:30:24;;;;;;;5.20;2.80;;;;;;;;;;5051101;28;20920;-80
2023/12/29 14:32:50;;;;;;;2.80;2.60;;;;;;;;;;5055155;28;20814;-79
2023/12/29 14:35:17;;;;;;;5.47;2.90;;;;;;;;;;5056308;28;20467;-79
2023/12/29 14:37:43;;;;;;;5.53;2.70;;;;;;;;;;5056415;28;21010;-80
2023/12/29 14:40:11;;;;;;;2.90;2.40;;;;;;;;;;5055804;28;20468;-80
2023/12/29 14:42:40;;;;;;;3.03;2.83;;;;;;;;;;5053388;28;20718;-82